Time;durP1;ratioP1;P1;durP2;ratioP2;P2;SDS_P1;SDS_P2;PMS_P1;PMS_P2;Temp;Humidity;BMP_temperature;BMP_pressure;BME280_temperature;BME280_humidity;BME280_pressure;Samples;Min_cycle;Max_cycle;Signal;HPM_P1;HPM_P2
2023/08/11 00:00:52;;;;;;;4.40;2.88;;;;;;;16.09;67.16;97213.78;4896930;29;20056;-77
2023/08/11 00:03:20;;;;;;;3.28;2.15;;;;;;;16.10;67.45;97220.69;4896745;29;20521;-77
2023/08/11 00:05:48;;;;;;;3.67;2.17;;;;;;;16.12;67.37;97216.03;4905258;29;20049;-77
2023/08/11 00:08:16;;;;;;;5.72;3.35;;;;;;;16.16;68.32;97218.06;4908218;29;20048;-77
2023/08/11 00:10:43;;;;;;;3.92;2.58;;;;;;;16.22;68.71;97226.94;4908522;29;20053;-77
2023/08/11 00:13:13;;;;;;;5.13;2.85;;;;;;;16.26;68.16;97228.16;4921182;23;20459;-75
2023/08/11 00:15:42;;;;;;;3.90;2.58;;;;;;;16.27;67.74;97224.53;4897075;29;20057;-75
2023/08/11 00:18:10;;;;;;;2.97;2.65;;;;;;;16.27;67.32;97221.91;4897457;29;20057;-75
2023/08/11 00:20:38;;;;;;;5.25;3.13;;;;;;;16.26;67.43;97226.34;4896985;29;20053;-75
2023/08/11 00:23:06;;;;;;;6.50;3.78;;;;;;;16.26;68.92;97226.34;4896774;29;20080;-75
2023/08/11 00:25:33;;;;;;;4.88;3.70;;;;;;;16.32;72.69;97224.72;4899206;29;20056;-75
2023/08/11 00:28:01;;;;;;;4.53;3.72;;;;;;;16.39;73.89;97225.53;4900289;29;20116;-75
2023/08/11 00:30:29;;;;;;;4.72;4.22;;;;;;;16.42;75.09;97229.56;4900480;29;20061;-75
2023/08/11 00:32:58;;;;;;;5.20;4.22;;;;;;;16.43;76.95;97232.00;4899788;29;20063;-75
2023/08/11 00:35:25;;;;;;;4.55;3.65;;;;;;;16.40;72.29;97231.63;4899968;29;20056;-75
2023/08/11 00:37:53;;;;;;;4.20;3.80;;;;;;;16.36;73.29;97227.78;4900270;29;20108;-75
2023/08/11 00:40:21;;;;;;;6.07;4.45;;;;;;;16.39;74.90;97236.06;4900023;29;20057;-75
2023/08/11 00:42:49;;;;;;;5.68;4.30;;;;;;;16.42;75.94;97230.41;4899698;29;20057;-75
2023/08/11 00:45:18;;;;;;;3.17;2.90;;;;;;;16.39;71.90;97230.78;4899980;29;20502;-75
2023/08/11 00:47:46;;;;;;;4.63;2.90;;;;;;;16.34;69.88;97222.69;4900207;29;20041;-75
2023/08/11 00:50:16;;;;;;;3.80;2.85;;;;;;;16.29;68.56;97230.41;4899791;29;20057;-75
2023/08/11 00:52:45;;;;;;;3.13;2.20;;;;;;;16.24;69.02;97222.28;4899650;29;20121;-75
2023/08/11 00:55:13;;;;;;;3.53;2.20;;;;;;;16.20;68.10;97218.44;4899595;29;20112;-75
2023/08/11 00:57:42;;;;;;;3.78;2.63;;;;;;;16.15;67.62;97223.50;4900056;29;20057;-75
2023/08/11 01:00:13;;;;;;;5.68;2.53;;;;;;;16.10;68.93;97220.69;4899975;29;20075;-75
2023/08/11 01:02:42;;;;;;;3.13;2.30;;;;;;;16.06;67.73;97218.44;4899591;29;20132;-75
2023/08/11 01:05:11;;;;;;;3.35;2.53;;;;;;;16.02;68.09;97219.84;4899588;29;20135;-75
2023/08/11 01:07:48;;;;;;;3.22;2.28;;;;;;;15.98;67.68;97213.38;4899859;29;20474;-75
2023/08/11 01:10:25;;;;;;;7.85;2.72;;;;;;;15.94;67.15;97209.53;4899547;29;20426;-75
2023/08/11 01:13:01;;;;;;;3.35;2.58;;;;;;;15.93;67.19;97213.16;4898909;29;20514;-75
2023/08/11 01:15:35;;;;;;;2.78;2.35;;;;;;;15.88;67.21;97212.97;4899014;29;20055;-75
2023/08/11 01:18:05;;;;;;;2.15;1.73;;;;;;;15.84;67.18;97219.63;4898952;29;20048;-75
2023/08/11 01:20:33;;;;;;;4.30;2.58;;;;;;;15.80;67.21;97215.78;4899334;29;20056;-75
2023/08/11 01:23:05;;;;;;;4.30;2.13;;;;;;;15.76;67.39;97219.81;4899272;29;20088;-75
2023/08/11 01:25:34;;;;;;;2.90;2.28;;;;;;;15.74;67.23;97220.03;4899277;29;20053;-75
2023/08/11 01:28:02;;;;;;;2.72;2.38;;;;;;;15.71;67.12;97227.47;4899895;29;20108;-74
2023/08/11 01:30:30;;;;;;;2.78;2.47;;;;;;;15.66;67.35;97220.97;4898836;29;20084;-75
2023/08/11 01:32:58;;;;;;;2.45;2.25;;;;;;;15.63;67.32;97218.75;4899087;29;20139;-75
2023/08/11 01:35:25;;;;;;;4.20;2.50;;;;;;;15.59;67.48;97219.31;4899056;29;20131;-75
2023/08/11 01:38:09;;;;;;;2.80;2.20;;;;;;;15.54;67.49;97219.91;4898660;29;20057;-75
2023/08/11 01:40:39;;;;;;;4.35;2.10;;;;;;;15.53;67.61;97217.50;4898784;29;20577;-75
2023/08/11 01:43:10;;;;;;;3.60;2.38;;;;;;;15.50;68.17;97226.56;4898813;29;20458;-75
2023/08/11 01:45:37;;;;;;;2.75;2.35;;;;;;;15.53;68.22;97225.41;4899150;29;20136;-75
2023/08/11 01:48:06;;;;;;;3.08;2.70;;;;;;;15.59;72.45;97235.94;4898900;29;20571;-75
2023/08/11 01:50:34;;;;;;;3.08;2.20;;;;;;;15.63;69.30;97231.06;4898900;29;20112;-75
2023/08/11 01:53:02;;;;;;;4.18;2.85;;;;;;;15.61;68.88;97233.09;4898657;29;20502;-75
2023/08/11 01:55:30;;;;;;;3.38;2.30;;;;;;;15.59;68.26;97235.94;4898682;29;20112;-75
2023/08/11 01:57:59;;;;;;;3.08;2.53;;;;;;;15.56;67.96;97235.50;4899028;29;20479;-74
2023/08/11 02:00:28;;;;;;;5.57;2.58;;;;;;;15.55;68.75;97233.91;4899159;29;20056;-74
2023/08/11 02:02:57;;;;;;;4.03;2.72;;;;;;;15.53;68.22;97233.28;4898421;29;20537;-75
2023/08/11 02:05:25;;;;;;;4.35;2.72;;;;;;;15.53;68.22;97234.09;4898765;29;20507;-75
2023/08/11 02:07:55;;;;;;;5.25;2.88;;;;;;;15.53;68.21;97230.66;4898578;29;20057;-74
2023/08/11 02:10:23;;;;;;;3.90;2.40;;;;;;;15.51;67.67;97238.72;4898582;29;20060;-74
2023/08/11 02:12:50;;;;;;;3.47;2.42;;;;;;;15.48;67.68;97239.13;4898060;29;20577;-74
2023/08/11 02:15:19;;;;;;;3.83;2.63;;;;;;;15.44;67.60;97232.66;4898524;29;20104;-75
2023/08/11 02:17:47;;;;;;;2.25;1.98;;;;;;;15.41;67.79;97235.66;4898740;29;20052;-75
2023/08/11 02:20:19;;;;;;;4.15;2.28;;;;;;;15.37;67.86;97231.78;4898457;29;20442;-75
2023/08/11 02:22:46;;;;;;;2.45;2.25;;;;;;;15.35;68.59;97233.81;4898237;29;20060;-75
2023/08/11 02:25:14;;;;;;;3.30;2.20;;;;;;;15.33;68.39;97233.22;4898474;29;20049;-75
2023/08/11 02:27:43;;;;;;;3.17;2.53;;;;;;;15.33;67.99;97227.97;4898480;29;20093;-74
2023/08/11 02:30:13;;;;;;;5.80;2.38;;;;;;;15.30;68.18;97220.44;4898261;29;20434;-77
2023/08/11 02:32:45;;;;;;;2.60;2.22;;;;;;;15.29;69.19;97229.34;4897972;29;20430;-75
2023/08/11 02:35:14;;;;;;;3.33;2.60;;;;;;;15.27;68.21;97224.28;4898095;29;20056;-75
2023/08/11 02:37:42;;;;;;;5.70;2.58;;;;;;;15.22;68.22;97224.88;4898237;29;20052;-74
2023/08/11 02:40:10;;;;;;;2.95;2.42;;;;;;;15.18;68.33;97221.00;4898284;29;20049;-75
2023/08/11 02:42:39;;;;;;;2.50;2.30;;;;;;;15.15;68.40;97218.78;4898020;29;20056;-75
2023/08/11 02:45:10;;;;;;;2.83;2.45;;;;;;;15.14;68.36;97218.97;4898325;29;20463;-75
2023/08/11 02:47:39;;;;;;;2.50;2.30;;;;;;;15.11;68.45;97216.72;4897631;29;20057;-75
2023/08/11 02:50:10;;;;;;;4.50;2.50;;;;;;;15.08;68.57;97211.88;4898538;29;20478;-75
2023/08/11 02:52:38;;;;;;;3.58;2.17;;;;;;;15.06;68.61;97209.41;4911639;29;20037;-75
2023/08/11 02:55:07;;;;;;;2.22;2.00;;;;;;;15.05;68.72;97207.81;4918861;29;20319;-75
2023/08/11 02:57:35;;;;;;;2.63;2.35;;;;;;;15.07;68.79;97207.63;4910028;29;20053;-74
2023/08/11 03:00:08;;;;;;;3.08;2.85;;;;;;;15.09;68.87;97205.63;4899640;29;20059;-74
2023/08/11 03:02:37;;;;;;;4.53;2.35;;;;;;;15.07;68.52;97205.81;4899171;29;20087;-75
2023/08/11 03:05:06;;;;;;;3.13;2.60;;;;;;;15.05;68.54;97207.81;4898449;29;20055;-75
2023/08/11 03:07:36;;;;;;;2.25;2.05;;;;;;;15.03;68.79;97210.63;4898153;29;20503;-75
2023/08/11 03:10:04;;;;;;;3.50;2.70;;;;;;;15.05;69.61;97205.19;4898017;29;20056;-74
2023/08/11 03:12:32;;;;;;;5.30;2.47;;;;;;;15.05;68.97;97202.56;4897792;29;20510;-75
2023/08/11 03:15:00;;;;;;;3.58;2.60;;;;;;;15.06;68.98;97208.63;4897611;29;20056;-75
2023/08/11 03:17:28;;;;;;;2.60;2.40;;;;;;;15.07;69.37;97205.81;4897763;29;20057;-75
2023/08/11 03:19:55;;;;;;;3.58;2.70;;;;;;;15.10;69.14;97218.53;4898041;29;20057;-75
2023/08/11 03:22:23;;;;;;;3.67;2.58;;;;;;;15.11;69.10;97220.19;4897498;29;20060;-74
2023/08/11 03:24:53;;;;;;;4.20;2.70;;;;;;;15.14;69.89;97222.41;4897437;29;20485;-75
2023/08/11 03:27:20;;;;;;;2.75;2.55;;;;;;;15.18;69.87;97217.59;4897482;29;20052;-75
2023/08/11 03:29:48;;;;;;;3.22;2.85;;;;;;;15.24;71.93;97220.22;4897453;29;20083;-75
2023/08/11 03:32:15;;;;;;;3.17;2.95;;;;;;;15.31;74.01;97219.47;4897127;29;20510;-75
2023/08/11 03:34:43;;;;;;;3.28;2.67;;;;;;;15.31;71.17;97216.81;4897617;29;20052;-74
2023/08/11 03:37:11;;;;;;;4.47;2.75;;;;;;;15.25;69.87;97221.84;4897247;29;20105;-74
2023/08/11 03:39:39;;;;;;;2.90;2.45;;;;;;;15.21;69.50;97220.59;4897087;29;20049;-75
2023/08/11 03:42:08;;;;;;;2.85;2.55;;;;;;;15.22;70.01;97226.69;4897204;29;20407;-75
2023/08/11 03:44:40;;;;;;;2.78;2.58;;;;;;;15.20;69.32;97226.88;4897374;29;20080;-75
2023/08/11 03:47:07;;;;;;;3.33;2.25;;;;;;;15.17;69.31;97221.19;4897207;29;20048;-75
2023/08/11 03:49:35;;;;;;;4.68;2.28;;;;;;;15.13;69.17;97220.78;4897101;29;20112;-75
2023/08/11 03:52:03;;;;;;;3.05;2.40;;;;;;;15.10;69.10;97215.91;4896903;29;20048;-75
2023/08/11 03:54:31;;;;;;;5.60;2.75;;;;;;;15.08;69.13;97233.69;4896774;29;20052;-75
2023/08/11 03:57:14;;;;;;;5.95;2.58;;;;;;;15.06;69.31;97230.44;4897086;29;20053;-75
2023/08/11 03:59:42;;;;;;;3.58;2.55;;;;;;;15.02;69.10;97234.47;4898598;29;20104;-75
2023/08/11 04:02:09;;;;;;;4.50;2.90;;;;;;;14.96;69.32;97236.06;4900649;29;20052;-75
2023/08/11 04:04:37;;;;;;;4.00;2.88;;;;;;;14.91;69.55;97235.00;4900880;29;20107;-74
2023/08/11 04:07:05;;;;;;;3.00;2.72;;;;;;;14.92;69.92;97234.03;4901038;29;20049;-75
2023/08/11 04:09:34;;;;;;;3.58;3.00;;;;;;;14.93;69.79;97231.19;4900543;29;20514;-75
2023/08/11 04:12:02;;;;;;;3.72;3.17;;;;;;;14.94;70.04;97235.44;4900282;29;20060;-75
2023/08/11 04:14:31;;;;;;;3.50;3.20;;;;;;;14.98;70.70;97233.25;4900365;29;20053;-75
2023/08/11 04:16:59;;;;;;;3.55;2.90;;;;;;;15.01;70.58;97236.28;4900394;29;20110;-75
2023/08/11 04:19:26;;;;;;;9.30;2.92;;;;;;;15.03;70.75;97236.09;4900521;29;20078;-75
2023/08/11 04:21:54;;;;;;;3.65;2.92;;;;;;;15.02;69.99;97242.34;4900487;29;20060;-76
2023/08/11 04:24:22;;;;;;;7.38;2.58;;;;;;;14.98;70.02;97233.25;4900296;29;20109;-74
2023/08/11 04:26:51;;;;;;;4.72;2.78;;;;;;;14.95;69.92;97238.88;4900595;29;20100;-75
2023/08/11 04:29:18;;;;;;;6.40;2.78;;;;;;;14.91;70.01;97237.63;4900173;29;20056;-75
2023/08/11 04:31:47;;;;;;;2.80;2.60;;;;;;;14.88;70.25;97232.78;4899860;29;20522;-75
2023/08/11 04:34:16;;;;;;;3.53;2.85;;;;;;;14.84;70.41;97235.78;4900286;29;20506;-75
2023/08/11 04:36:44;;;;;;;3.70;3.00;;;;;;;14.86;71.95;97229.53;4900304;29;20430;-75
2023/08/11 04:39:12;;;;;;;3.03;2.70;;;;;;;14.87;71.10;97231.97;4900035;29;20056;-75
2023/08/11 04:41:40;;;;;;;3.40;3.05;;;;;;;14.84;70.78;97222.63;4899352;29;20053;-75
2023/08/11 04:44:08;;;;;;;5.55;2.92;;;;;;;14.86;70.80;97227.72;4899742;29;20108;-74
2023/08/11 04:46:36;;;;;;;3.20;2.70;;;;;;;14.88;71.05;97227.53;4900192;29;20049;-75
2023/08/11 04:49:05;;;;;;;4.30;3.00;;;;;;;14.89;71.03;97242.25;4900136;29;20056;-75
2023/08/11 04:51:32;;;;;;;3.85;3.15;;;;;;;14.92;71.30;97239.28;4899681;29;20135;-74
2023/08/11 04:54:02;;;;;;;4.82;2.88;;;;;;;14.98;71.38;97238.50;4900067;29;20120;-75
2023/08/11 04:56:30;;;;;;;4.13;3.13;;;;;;;15.00;70.98;97239.13;4899698;29;20064;-74
2023/08/11 04:58:57;;;;;;;3.92;2.90;;;;;;;15.01;72.51;97243.34;4899723;29;20094;-75
2023/08/11 05:01:25;;;;;;;5.07;2.78;;;;;;;15.04;71.46;97243.78;4899597;29;20052;-75
2023/08/11 05:03:53;;;;;;;3.88;3.00;;;;;;;15.07;71.34;97252.28;4899641;29;20510;-75
2023/08/11 05:06:22;;;;;;;4.03;2.83;;;;;;;15.09;71.04;97250.28;4899907;29;20053;-75
2023/08/11 05:08:50;;;;;;;5.80;2.95;;;;;;;15.08;71.06;97244.19;4899565;29;20121;-74
2023/08/11 05:11:17;;;;;;;8.85;3.00;;;;;;;15.10;71.32;97247.44;4898766;29;20052;-75
2023/08/11 05:13:45;;;;;;;4.53;3.30;;;;;;;15.14;71.21;97250.50;4899454;29;20462;-75
2023/08/11 05:16:13;;;;;;;4.50;2.67;;;;;;;15.15;71.10;97242.44;4899413;29;20053;-75
2023/08/11 05:18:41;;;;;;;3.20;2.75;;;;;;;15.18;71.06;97247.28;4899234;29;20526;-75
2023/08/11 05:21:11;;;;;;;3.35;3.03;;;;;;;15.21;71.39;97233.75;4899613;29;20056;-74
2023/08/11 05:23:40;;;;;;;6.10;2.97;;;;;;;15.29;71.75;97239.88;4899683;29;20052;-75
2023/08/11 05:26:08;;;;;;;3.65;3.22;;;;;;;15.31;71.28;97246.53;4899060;29;20566;-75
2023/08/11 05:28:36;;;;;;;5.68;3.17;;;;;;;15.33;71.17;97241.91;4899438;29;20048;-75
2023/08/11 05:31:04;;;;;;;3.50;2.97;;;;;;;15.36;71.22;97244.13;4898994;29;20052;-74
2023/08/11 05:33:33;;;;;;;4.05;2.83;;;;;;;15.40;71.41;97250.63;4898576;29;20061;-75
2023/08/11 05:36:01;;;;;;;4.60;3.08;;;;;;;15.44;72.71;97248.41;4898940;29;20140;-75
2023/08/11 05:38:29;;;;;;;4.20;2.90;;;;;;;15.49;71.75;97245.19;4898755;29;20048;-75
2023/08/11 05:40:57;;;;;;;5.72;3.60;;;;;;;15.54;71.81;97245.41;4899170;29;20511;-74
2023/08/11 05:43:25;;;;;;;6.03;3.53;;;;;;;15.60;71.69;97242.00;4898941;29;20056;-74
2023/08/11 05:45:53;;;;;;;5.07;4.30;;;;;;;15.69;75.18;97250.53;4898836;29;20121;-75
2023/08/11 05:48:20;;;;;;;6.97;4.43;;;;;;;15.75;73.17;97244.50;4899026;29;20055;-74
2023/08/11 05:50:50;;;;;;;12.73;5.00;;;;;;;15.79;73.80;97245.72;4898776;29;20127;-74
2023/08/11 05:53:17;;;;;;;11.05;4.95;;;;;;;15.81;72.99;97244.50;4898835;29;20059;-75
2023/08/11 05:55:45;;;;;;;9.13;4.93;;;;;;;15.88;72.39;97243.72;4898725;29;20057;-78
2023/08/11 05:58:14;;;;;;;6.43;5.28;;;;;;;16.00;77.70;97247.38;4910514;29;20057;-81
2023/08/11 06:00:42;;;;;;;6.70;4.68;;;;;;;16.03;73.58;97247.78;4887330;29;20565;-80
2023/08/11 06:03:09;;;;;;;5.75;4.57;;;;;;;16.08;74.39;97247.19;4909336;29;20056;-81
2023/08/11 06:05:38;;;;;;;4.95;4.05;;;;;;;16.17;76.34;97253.88;4918604;29;20055;-81
2023/08/11 06:08:07;;;;;;;11.10;5.65;;;;;;;16.26;77.09;97252.66;4905327;29;20049;-81
2023/08/11 06:10:35;;;;;;;11.82;6.13;;;;;;;16.30;75.26;97260.16;4902877;29;20499;-79
2023/08/11 06:13:07;;;;;;;8.70;6.65;;;;;;;16.35;74.69;97250.63;4924710;23;20056;-78
2023/08/11 06:15:36;;;;;;;10.77;7.13;;;;;;;16.44;78.21;97249.44;4895794;29;20427;-77
2023/08/11 06:18:04;;;;;;;11.18;7.45;;;;;;;16.49;76.74;97248.84;4881158;29;20101;-78
2023/08/11 06:20:33;;;;;;;8.85;7.10;;;;;;;16.52;75.82;97248.41;4881034;29;21618;-78
2023/08/11 06:23:08;;;;;;;8.73;7.18;;;;;;;16.56;75.33;97259.38;4893789;29;20123;-78
2023/08/11 06:25:36;;;;;;;15.00;7.50;;;;;;;16.61;77.51;97259.56;4905274;29;20554;-79
2023/08/11 06:28:18;;;;;;;10.77;7.57;;;;;;;16.67;74.87;97258.75;4908624;29;20064;-79
2023/08/11 06:31:21;;;;;;;11.63;6.85;;;;;;;16.77;74.41;97253.03;4904935;29;20048;-79
2023/08/11 06:34:17;;;;;;;11.85;6.88;;;;;;;16.92;77.53;97258.94;5053265;23;20120;-78
2023/08/11 06:36:46;;;;;;;9.68;6.97;;;;;;;17.02;77.25;97256.69;4897667;29;20503;-79
2023/08/11 06:42:27;;;;;;;7.07;5.32;;;;;;;17.28;76.15;97266.34;5857964;23;20055;-79
2023/08/11 06:44:55;;;;;;;13.63;5.38;;;;;;;17.38;73.19;97265.94;4898594;29;20095;-79
2023/08/11 06:48:13;;;;;;;8.55;6.07;;;;;;;17.54;75.86;97261.19;4880959;29;20500;-80
2023/08/11 06:58:47;;;;;;;5.15;4.07;;;;;;;18.09;77.07;97264.97;4863981;29;20054;-79
2023/08/11 07:04:57;;;;;;;3.58;2.60;;;;;;;18.39;73.31;97267.00;4822798;29;20054;-78
2023/08/11 07:07:25;;;;;;;3.22;2.92;;;;;;;18.50;73.17;97276.06;4822730;29;20054;-78
2023/08/11 07:12:38;;;;;;;4.45;2.80;;;;;;;18.80;70.91;97273.59;4822414;29;20094;-78
2023/08/11 07:15:08;;;;;;;4.43;3.10;;;;;;;18.94;71.84;97274.28;4822454;29;20050;-77
2023/08/11 07:17:36;;;;;;;7.82;3.15;;;;;;;19.05;71.86;97270.91;4820920;29;20133;-78
2023/08/11 07:20:05;;;;;;;6.63;2.53;;;;;;;19.17;70.75;97268.34;4821065;29;21052;-78
2023/08/11 07:22:33;;;;;;;4.85;3.40;;;;;;;19.27;69.31;97271.28;4821316;29;20062;-78
2023/08/11 07:25:00;;;;;;;3.72;3.05;;;;;;;19.40;70.57;97266.91;4821244;29;20085;-78
2023/08/11 07:27:28;;;;;;;3.08;2.30;;;;;;;19.54;67.31;97274.44;4825976;29;20482;-78
2023/08/11 07:29:56;;;;;;;3.38;2.85;;;;;;;19.71;68.43;97266.72;4827723;29;20505;-78
2023/08/11 07:32:25;;;;;;;3.60;2.95;;;;;;;19.85;67.33;97275.28;4823030;29;20059;-79
2023/08/11 07:34:52;;;;;;;4.20;2.78;;;;;;;20.01;67.52;97271.22;4820645;29;20050;-78
2023/08/11 07:37:20;;;;;;;3.58;2.75;;;;;;;20.19;64.91;97274.84;4821299;29;20062;-79
2023/08/11 07:39:48;;;;;;;3.97;2.50;;;;;;;20.37;64.31;97272.91;4821268;29;20107;-78
2023/08/11 07:42:15;;;;;;;4.68;3.20;;;;;;;20.57;63.65;97277.13;4821402;29;20069;-78
2023/08/11 07:44:43;;;;;;;3.72;2.78;;;;;;;20.76;64.72;97275.19;4820836;29;20832;-79
2023/08/11 07:47:11;;;;;;;2.40;2.20;;;;;;;20.98;63.47;97278.88;4821854;29;20050;-79
2023/08/11 07:49:40;;;;;;;4.28;3.10;;;;;;;21.17;65.46;97284.06;4821391;29;20060;-78
2023/08/11 07:52:08;;;;;;;9.07;2.67;;;;;;;21.34;62.78;97282.31;4820922;29;20050;-80
2023/08/11 07:54:35;;;;;;;5.28;2.72;;;;;;;21.56;60.94;97281.72;4821237;29;20063;-79
2023/08/11 07:57:03;;;;;;;4.30;2.88;;;;;;;21.71;59.80;97284.66;4841250;29;20058;-79
2023/08/11 07:59:31;;;;;;;5.72;2.30;;;;;;;21.87;59.65;97284.94;4825853;29;20425;-79
2023/08/11 08:01:59;;;;;;;2.70;2.28;;;;;;;22.00;58.76;97284.66;4824988;29;20534;-79
2023/08/11 08:04:27;;;;;;;2.90;2.22;;;;;;;22.17;57.81;97284.69;4824944;29;20144;-79
2023/08/11 08:06:57;;;;;;;6.70;2.42;;;;;;;22.33;57.31;97293.78;4823457;29;20137;-79
2023/08/11 08:09:24;;;;;;;3.88;2.30;;;;;;;22.50;57.20;97293.75;4833584;29;20050;-78
2023/08/11 08:11:52;;;;;;;3.78;2.20;;;;;;;22.68;57.27;97293.53;4827330;29;20082;-78
2023/08/11 08:14:20;;;;;;;3.60;1.98;;;;;;;22.85;55.23;97296.19;4822799;29;20102;-79
2023/08/11 08:16:47;;;;;;;2.67;2.13;;;;;;;23.01;54.90;97299.91;4834389;29;20089;-79
2023/08/11 08:19:16;;;;;;;2.55;2.20;;;;;;;23.16;54.80;97302.78;4839504;29;20053;-79
2023/08/11 08:21:46;;;;;;;2.60;2.40;;;;;;;23.33;54.53;97301.94;4832554;29;20058;-79
2023/08/11 08:24:15;;;;;;;2.67;2.08;;;;;;;23.49;53.18;97310.94;4824642;29;20061;-78
2023/08/11 08:26:44;;;;;;;3.28;2.13;;;;;;;23.62;52.23;97306.03;4840722;29;20485;-77
2023/08/11 08:29:12;;;;;;;3.08;2.00;;;;;;;23.75;51.33;97304.88;4840026;29;20053;-78
2023/08/11 08:31:40;;;;;;;2.38;1.73;;;;;;;23.87;48.94;97311.94;4831719;29;20081;-78
2023/08/11 08:34:07;;;;;;;2.22;2.00;;;;;;;23.97;50.39;97306.72;4823585;29;20115;-78
2023/08/11 08:36:35;;;;;;;3.35;2.22;;;;;;;24.10;49.89;97311.66;4823238;29;20058;-76
2023/08/11 08:39:03;;;;;;;5.35;1.75;;;;;;;24.24;48.81;97302.19;4822390;29;20050;-77
2023/08/11 08:41:38;;;;;;;2.78;1.77;;;;;;;24.35;47.62;97308.41;4837284;29;20061;-75
2023/08/11 08:44:06;;;;;;;;;;;;;;;24.47;50.28;97308.28;4827135;29;20058;-76
2023/08/11 08:46:34;;;;;;;2.53;2.15;;;;;;;24.53;48.65;97299.28;4824609;29;19967;-76
2023/08/11 08:49:23;;;;;;;2.45;2.25;;;;;;;24.60;48.51;97299.88;4830060;29;20043;-75
2023/08/11 08:51:51;;;;;;;2.95;2.40;;;;;;;24.70;53.43;97301.81;4826771;29;20061;-76
2023/08/11 08:54:19;;;;;;;3.38;2.17;;;;;;;24.76;49.43;97300.00;4826129;29;20093;-76
2023/08/11 08:56:49;;;;;;;4.65;2.20;;;;;;;24.85;49.61;97301.91;4825737;29;20054;-76
2023/08/11 08:59:16;;;;;;;2.05;1.92;;;;;;;24.96;48.38;97304.66;4827015;29;20050;-76
2023/08/11 09:01:45;;;;;;;3.65;2.30;;;;;;;25.06;48.02;97297.53;4842543;29;20081;-77
2023/08/11 09:04:13;;;;;;;2.63;1.90;;;;;;;25.16;47.69;97301.31;4843962;29;20057;-77
2023/08/11 09:06:42;;;;;;;2.95;2.28;;;;;;;25.25;47.60;97300.63;4843880;29;20540;-76
2023/08/11 09:09:10;;;;;;;2.60;2.17;;;;;;;25.36;47.32;97297.97;4846775;29;20075;-80
2023/08/11 09:11:38;;;;;;;3.45;2.05;;;;;;;25.45;47.02;97299.91;4863625;29;20061;-79
2023/08/11 09:14:09;;;;;;;3.92;2.08;;;;;;;25.57;46.83;97301.56;4857633;29;20058;-78
2023/08/11 09:16:38;;;;;;;2.40;2.20;;;;;;;25.66;46.80;97294.63;4829647;29;20061;-79
2023/08/11 09:19:08;;;;;;;3.15;2.70;;;;;;;25.76;47.26;97294.69;4827761;29;20110;-78
2023/08/11 09:21:36;;;;;;;3.92;2.42;;;;;;;25.85;46.84;97290.44;4828404;29;20115;-79
2023/08/11 09:24:04;;;;;;;4.03;2.40;;;;;;;25.94;46.87;97289.97;4828756;29;20054;-79
2023/08/11 09:26:32;;;;;;;4.50;2.60;;;;;;;26.02;46.06;97286.75;4832477;29;20083;-79
2023/08/11 09:29:00;;;;;;;2.90;2.40;;;;;;;26.08;46.05;97281.13;4827499;29;20489;-79
2023/08/11 09:31:29;;;;;;;3.90;3.20;;;;;;;26.17;45.76;97289.44;4832013;29;20057;-79
2023/08/11 09:33:57;;;;;;;4.68;2.78;;;;;;;26.22;45.61;97281.44;4827558;29;20468;-80
2023/08/11 09:36:24;;;;;;;4.07;2.40;;;;;;;26.27;45.73;97280.66;4836745;29;20110;-79
2023/08/11 09:38:52;;;;;;;4.38;2.53;;;;;;;26.33;45.30;97273.41;4846075;29;20045;-80
2023/08/11 09:41:20;;;;;;;2.80;2.40;;;;;;;26.38;45.94;97270.75;4829087;29;20054;-82
2023/08/11 09:43:48;;;;;;;4.40;2.60;;;;;;;26.44;45.55;97278.50;4826616;29;20051;-80
2023/08/11 09:46:16;;;;;;;3.30;2.40;;;;;;;26.52;45.57;97277.16;4834983;29;20149;-80
2023/08/11 09:48:55;;;;;;;3.72;2.38;;;;;;;26.59;45.29;97274.25;4837099;29;20428;-83
2023/08/11 09:51:23;;;;;;;3.10;2.70;;;;;;;26.65;45.20;97279.31;4828433;29;20478;-79
2023/08/11 09:53:53;;;;;;;2.65;2.45;;;;;;;26.71;44.32;97272.91;4846177;29;20101;-79
2023/08/11 09:56:22;;;;;;;2.30;2.10;;;;;;;26.79;44.82;97276.13;4831508;29;20434;-79
2023/08/11 09:58:52;;;;;;;3.97;2.72;;;;;;;26.85;44.97;97272.34;4838140;29;20428;-73
2023/08/11 10:01:20;;;;;;;3.35;2.80;;;;;;;26.92;44.58;97275.56;4840404;29;20099;-80
2023/08/11 10:03:48;;;;;;;2.88;2.67;;;;;;;27.03;44.95;97274.47;4833775;29;21693;-78
2023/08/11 10:06:20;;;;;;;3.17;2.67;;;;;;;27.17;43.93;97273.91;4840526;29;20106;-83
2023/08/11 10:08:51;;;;;;;4.65;2.83;;;;;;;27.29;44.05;97282.47;4847055;29;20066;-80
2023/08/11 10:11:22;;;;;;;3.55;2.55;;;;;;;27.37;43.42;97278.41;4845387;29;20065;-79
2023/08/11 10:13:50;;;;;;;2.53;2.30;;;;;;;27.45;43.90;97270.63;4845808;29;20687;-80
2023/08/11 10:16:19;;;;;;;4.65;2.92;;;;;;;27.57;44.16;97266.81;4845491;29;20239;-80
2023/08/11 10:18:47;;;;;;;5.15;2.42;;;;;;;27.69;43.25;97270.78;4845488;29;20516;-80
2023/08/11 10:21:15;;;;;;;3.95;2.50;;;;;;;27.82;43.44;97266.69;4845111;29;20072;-80
2023/08/11 10:23:44;;;;;;;2.28;2.03;;;;;;;27.96;43.74;97269.59;4844927;29;20050;-80
2023/08/11 10:26:13;;;;;;;3.90;2.50;;;;;;;28.08;43.26;97271.94;4848881;29;20587;-80
2023/08/11 10:28:41;;;;;;;2.42;2.22;;;;;;;28.17;43.06;97264.09;4854228;29;20087;-80
2023/08/11 10:31:09;;;;;;;2.35;2.08;;;;;;;28.26;41.64;97268.59;4859978;29;20096;-79
2023/08/11 10:33:36;;;;;;;3.05;2.50;;;;;;;28.35;42.37;97260.72;4860075;29;20084;-80
2023/08/11 10:36:05;;;;;;;4.30;2.78;;;;;;;28.45;42.42;97260.66;4849870;29;20441;-80
2023/08/11 10:38:34;;;;;;;2.33;2.10;;;;;;;28.50;42.49;97265.22;4852743;29;20061;-80
2023/08/11 10:41:04;;;;;;;2.83;2.50;;;;;;;28.55;42.33;97265.16;4847718;29;20057;-80
2023/08/11 10:43:34;;;;;;;2.60;2.40;;;;;;;28.55;41.74;97265.16;4846363;29;20058;-79
2023/08/11 10:46:17;;;;;;;2.92;2.30;;;;;;;28.58;41.73;97263.78;4846935;29;20050;-80
2023/08/11 10:48:45;;;;;;;4.80;2.20;;;;;;;28.56;41.50;97266.78;4851249;29;20054;-80
2023/08/11 10:51:28;;;;;;;2.47;2.28;;;;;;;28.62;42.17;97260.25;4847210;29;20118;-80
2023/08/11 10:53:57;;;;;;;2.55;2.35;;;;;;;28.68;41.29;97258.34;4850750;29;20516;-80
2023/08/11 10:56:30;;;;;;;2.63;2.28;;;;;;;28.69;41.18;97260.75;4847498;29;20126;-80
2023/08/11 10:59:15;;;;;;;2.35;2.15;;;;;;;28.70;41.65;97267.72;4846455;29;20247;-80
2023/08/11 11:01:46;;;;;;;3.33;2.38;;;;;;;28.71;41.30;97263.13;4845804;29;20110;-80
2023/08/11 11:04:15;;;;;;;3.17;2.00;;;;;;;28.74;42.23;97263.38;4845967;29;20054;-80
2023/08/11 11:06:45;;;;;;;3.97;2.90;;;;;;;28.79;41.89;97267.91;4845970;29;20096;-80
2023/08/11 11:09:13;;;;;;;3.80;2.50;;;;;;;28.82;40.70;97253.91;4845736;29;20053;-79
2023/08/11 11:11:44;;;;;;;2.78;2.10;;;;;;;28.87;42.15;97261.13;4846173;29;20062;-80
2023/08/11 11:14:13;;;;;;;3.28;2.67;;;;;;;28.92;40.39;97263.75;4846708;29;20050;-79
2023/08/11 11:16:41;;;;;;;2.38;2.17;;;;;;;28.92;40.47;97253.00;4845869;29;20488;-80
2023/08/11 11:19:10;;;;;;;3.85;2.60;;;;;;;28.90;40.61;97255.16;4845628;29;20474;-80
2023/08/11 11:21:39;;;;;;;2.88;2.30;;;;;;;28.91;41.45;97254.91;4845066;29;20049;-78
2023/08/11 11:24:08;;;;;;;2.25;2.05;;;;;;;28.99;42.16;97264.19;4845518;29;20069;-79
2023/08/11 11:26:36;;;;;;;3.85;2.00;;;;;;;29.06;41.15;97253.94;4848552;29;20049;-82
2023/08/11 11:29:06;;;;;;;2.85;2.60;;;;;;;29.06;40.32;97253.94;4847760;29;20110;-81
2023/08/11 11:31:35;;;;;;;4.68;2.42;;;;;;;29.07;40.71;97255.53;4847540;29;20538;-81
2023/08/11 11:34:03;;;;;;;3.58;2.03;;;;;;;29.10;41.17;97251.50;4847243;29;20056;-82
2023/08/11 11:36:32;;;;;;;3.53;2.50;;;;;;;29.14;40.76;97242.56;4847233;29;20520;-82
2023/08/11 11:38:59;;;;;;;1.83;1.73;;;;;;;29.19;41.37;97248.97;4846530;29;20054;-81
2023/08/11 11:41:31;;;;;;;4.60;2.10;;;;;;;29.20;40.89;97247.91;4846379;29;20110;-81
2023/08/11 11:43:59;;;;;;;2.90;2.33;;;;;;;29.21;41.37;97249.50;4846745;29;20058;-82
2023/08/11 11:46:32;;;;;;;6.05;5.40;;;;;;;29.22;40.65;97254.59;4846393;29;20057;-81
2023/08/11 11:49:02;;;;;;;2.25;2.10;;;;;;;29.19;40.75;97248.97;4846033;29;20061;-81
2023/08/11 11:51:39;;;;;;;2.38;2.17;;;;;;;29.19;41.51;97241.75;4845913;29;20122;-81
2023/08/11 11:54:06;;;;;;;2.72;2.35;;;;;;;29.22;41.73;97243.84;4845479;29;20058;-82
2023/08/11 11:56:34;;;;;;;3.05;2.72;;;;;;;29.26;41.45;97244.09;4845197;29;20054;-81
2023/08/11 11:59:05;;;;;;;4.75;2.25;;;;;;;29.28;41.44;97244.56;4844646;29;20058;-81
2023/08/11 12:01:38;;;;;;;2.55;2.20;;;;;;;29.25;41.03;97245.16;4844664;29;20054;-81